sensor_id;sensor_type;location;lat;lon;timestamp;P1;durP1;ratioP1;P2;durP2;ratioP2
45236;SDS011;30973;51.442;3.580;2022-10-01T00:01:11;20.50;;;5.57;;
45236;SDS011;30973;51.442;3.580;2022-10-01T00:03:39;14.55;;;4.07;;
45236;SDS011;30973;51.442;3.580;2022-10-01T00:06:08;13.98;;;4.75;;
45236;SDS011;30973;51.442;3.580;2022-10-01T00:08:37;9.00;;;4.38;;
45236;SDS011;30973;51.442;3.580;2022-10-01T00:11:09;10.43;;;4.55;;
45236;SDS011;30973;51.442;3.580;2022-10-01T00:13:38;15.15;;;5.28;;
45236;SDS011;30973;51.442;3.580;2022-10-01T00:16:06;8.75;;;4.03;;
45236;SDS011;30973;51.442;3.580;2022-10-01T00:18:37;10.38;;;3.60;;
45236;SDS011;30973;51.442;3.580;2022-10-01T00:21:09;9.45;;;3.70;;
45236;SDS011;30973;51.442;3.580;2022-10-01T00:23:36;9.80;;;4.30;;
45236;SDS011;30973;51.442;3.580;2022-10-01T00:26:14;7.82;;;3.70;;
45236;SDS011;30973;51.442;3.580;2022-10-01T00:28:43;5.95;;;3.50;;
45236;SDS011;30973;51.442;3.580;2022-10-01T00:31:11;4.78;;;3.70;;
45236;SDS011;30973;51.442;3.580;2022-10-01T00:33:39;7.65;;;3.40;;
45236;SDS011;30973;51.442;3.580;2022-10-01T00:36:07;9.38;;;3.90;;
45236;SDS011;30973;51.442;3.580;2022-10-01T00:38:35;9.57;;;3.40;;
45236;SDS011;30973;51.442;3.580;2022-10-01T00:41:03;8.82;;;3.60;;
45236;SDS011;30973;51.442;3.580;2022-10-01T00:43:32;6.93;;;3.20;;
45236;SDS011;30973;51.442;3.580;2022-10-01T00:46:00;12.60;;;3.40;;
45236;SDS011;30973;51.442;3.580;2022-10-01T00:48:29;5.10;;;3.30;;
45236;SDS011;30973;51.442;3.580;2022-10-01T00:51:00;11.93;;;3.72;;
45236;SDS011;30973;51.442;3.580;2022-10-01T00:53:27;6.60;;;3.35;;
45236;SDS011;30973;51.442;3.580;2022-10-01T00:55:55;7.20;;;3.33;;
45236;SDS011;30973;51.442;3.580;2022-10-01T00:58:25;5.68;;;2.90;;
45236;SDS011;30973;51.442;3.580;2022-10-01T01:00:53;6.93;;;2.60;;
45236;SDS011;30973;51.442;3.580;2022-10-01T01:03:22;6.00;;;2.58;;
45236;SDS011;30973;51.442;3.580;2022-10-01T01:05:49;5.15;;;3.20;;
45236;SDS011;30973;51.442;3.580;2022-10-01T01:08:17;3.42;;;2.60;;
45236;SDS011;30973;51.442;3.580;2022-10-01T01:10:50;4.25;;;2.10;;
45236;SDS011;30973;51.442;3.580;2022-10-01T01:13:23;4.75;;;2.42;;
45236;SDS011;30973;51.442;3.580;2022-10-01T01:15:54;3.00;;;2.35;;
45236;SDS011;30973;51.442;3.580;2022-10-01T01:18:37;4.10;;;2.33;;
45236;SDS011;30973;51.442;3.580;2022-10-01T01:21:18;4.93;;;2.22;;
45236;SDS011;30973;51.442;3.580;2022-10-01T01:24:02;7.20;;;2.25;;
45236;SDS011;30973;51.442;3.580;2022-10-01T01:29:19;6.07;;;2.50;;
45236;SDS011;30973;51.442;3.580;2022-10-01T01:31:48;5.68;;;2.22;;
45236;SDS011;30973;51.442;3.580;2022-10-01T01:34:20;7.90;;;2.42;;
45236;SDS011;30973;51.442;3.580;2022-10-01T01:36:54;5.80;;;1.90;;
45236;SDS011;30973;51.442;3.580;2022-10-01T01:39:24;5.03;;;1.95;;
45236;SDS011;30973;51.442;3.580;2022-10-01T01:41:54;5.53;;;2.00;;
45236;SDS011;30973;51.442;3.580;2022-10-01T01:44:25;4.15;;;2.00;;
45236;SDS011;30973;51.442;3.580;2022-10-01T01:46:54;5.30;;;2.20;;
45236;SDS011;30973;51.442;3.580;2022-10-01T01:49:22;5.55;;;2.40;;
45236;SDS011;30973;51.442;3.580;2022-10-01T01:54:25;4.95;;;2.00;;
45236;SDS011;30973;51.442;3.580;2022-10-01T01:56:56;3.75;;;2.05;;
45236;SDS011;30973;51.442;3.580;2022-10-01T01:59:24;4.55;;;2.15;;
45236;SDS011;30973;51.442;3.580;2022-10-01T02:01:53;4.22;;;1.98;;
45236;SDS011;30973;51.442;3.580;2022-10-01T02:14:49;6.63;;;2.00;;
45236;SDS011;30973;51.442;3.580;2022-10-01T02:17:30;5.28;;;2.28;;
45236;SDS011;30973;51.442;3.580;2022-10-01T02:20:10;6.15;;;2.15;;
45236;SDS011;30973;51.442;3.580;2022-10-01T02:22:41;7.25;;;2.17;;
45236;SDS011;30973;51.442;3.580;2022-10-01T02:25:10;5.07;;;1.70;;
45236;SDS011;30973;51.442;3.580;2022-10-01T02:27:40;6.75;;;1.73;;
45236;SDS011;30973;51.442;3.580;2022-10-01T02:30:10;5.35;;;2.10;;
45236;SDS011;30973;51.442;3.580;2022-10-01T02:32:38;5.03;;;2.05;;
45236;SDS011;30973;51.442;3.580;2022-10-01T02:35:06;5.03;;;2.47;;
45236;SDS011;30973;51.442;3.580;2022-10-01T02:37:35;5.38;;;1.95;;
45236;SDS011;30973;51.442;3.580;2022-10-01T02:40:04;4.43;;;1.70;;
45236;SDS011;30973;51.442;3.580;2022-10-01T02:42:32;5.85;;;2.38;;
45236;SDS011;30973;51.442;3.580;2022-10-01T02:45:02;10.13;;;2.33;;
45236;SDS011;30973;51.442;3.580;2022-10-01T02:47:39;8.02;;;2.28;;
45236;SDS011;30973;51.442;3.580;2022-10-01T02:50:08;6.05;;;1.98;;
45236;SDS011;30973;51.442;3.580;2022-10-01T02:52:39;4.47;;;2.08;;
45236;SDS011;30973;51.442;3.580;2022-10-01T02:55:16;5.80;;;2.25;;
45236;SDS011;30973;51.442;3.580;2022-10-01T02:57:45;7.07;;;2.35;;
45236;SDS011;30973;51.442;3.580;2022-10-01T03:00:13;5.07;;;1.80;;
45236;SDS011;30973;51.442;3.580;2022-10-01T03:02:41;5.82;;;2.10;;
45236;SDS011;30973;51.442;3.580;2022-10-01T03:05:08;5.80;;;2.50;;
45236;SDS011;30973;51.442;3.580;2022-10-01T03:07:36;6.00;;;1.90;;
45236;SDS011;30973;51.442;3.580;2022-10-01T03:10:05;4.88;;;1.98;;
45236;SDS011;30973;51.442;3.580;2022-10-01T03:12:34;8.82;;;2.13;;
45236;SDS011;30973;51.442;3.580;2022-10-01T03:15:01;8.32;;;2.38;;
45236;SDS011;30973;51.442;3.580;2022-10-01T03:17:29;6.10;;;1.88;;
45236;SDS011;30973;51.442;3.580;2022-10-01T03:19:56;4.18;;;1.77;;
45236;SDS011;30973;51.442;3.580;2022-10-01T03:22:23;4.82;;;1.92;;
45236;SDS011;30973;51.442;3.580;2022-10-01T03:24:51;6.55;;;2.20;;
45236;SDS011;30973;51.442;3.580;2022-10-01T03:27:19;3.63;;;1.63;;
45236;SDS011;30973;51.442;3.580;2022-10-01T03:29:47;3.75;;;1.83;;
45236;SDS011;30973;51.442;3.580;2022-10-01T03:32:15;4.05;;;1.60;;
45236;SDS011;30973;51.442;3.580;2022-10-01T03:34:42;4.18;;;1.50;;
45236;SDS011;30973;51.442;3.580;2022-10-01T03:37:09;6.25;;;1.80;;
45236;SDS011;30973;51.442;3.580;2022-10-01T03:39:37;5.88;;;2.00;;
45236;SDS011;30973;51.442;3.580;2022-10-01T03:42:05;3.92;;;1.70;;
45236;SDS011;30973;51.442;3.580;2022-10-01T03:44:32;3.15;;;1.38;;
45236;SDS011;30973;51.442;3.580;2022-10-01T03:46:59;6.20;;;1.77;;
45236;SDS011;30973;51.442;3.580;2022-10-01T03:49:27;5.43;;;1.95;;
45236;SDS011;30973;51.442;3.580;2022-10-01T03:51:55;3.50;;;1.80;;
45236;SDS011;30973;51.442;3.580;2022-10-01T03:54:22;5.90;;;1.90;;
45236;SDS011;30973;51.442;3.580;2022-10-01T03:56:51;8.00;;;1.80;;
45236;SDS011;30973;51.442;3.580;2022-10-01T03:59:18;4.45;;;1.80;;
45236;SDS011;30973;51.442;3.580;2022-10-01T04:01:46;2.92;;;1.80;;
45236;SDS011;30973;51.442;3.580;2022-10-01T04:04:13;4.53;;;1.98;;
45236;SDS011;30973;51.442;3.580;2022-10-01T04:06:41;7.25;;;2.45;;
45236;SDS011;30973;51.442;3.580;2022-10-01T04:09:08;7.03;;;2.17;;
45236;SDS011;30973;51.442;3.580;2022-10-01T04:11:35;9.13;;;2.78;;
45236;SDS011;30973;51.442;3.580;2022-10-01T04:14:04;3.83;;;1.80;;
45236;SDS011;30973;51.442;3.580;2022-10-01T04:16:32;7.15;;;2.05;;
45236;SDS011;30973;51.442;3.580;2022-10-01T04:19:02;9.35;;;1.83;;
45236;SDS011;30973;51.442;3.580;2022-10-01T04:21:30;8.45;;;2.22;;
45236;SDS011;30973;51.442;3.580;2022-10-01T04:23:57;8.88;;;1.88;;
45236;SDS011;30973;51.442;3.580;2022-10-01T04:26:25;10.05;;;2.55;;
45236;SDS011;30973;51.442;3.580;2022-10-01T04:28:52;8.35;;;2.05;;
45236;SDS011;30973;51.442;3.580;2022-10-01T04:31:20;6.20;;;1.90;;
45236;SDS011;30973;51.442;3.580;2022-10-01T04:33:54;10.60;;;1.90;;
45236;SDS011;30973;51.442;3.580;2022-10-01T04:36:22;6.43;;;2.40;;
45236;SDS011;30973;51.442;3.580;2022-10-01T04:38:53;5.97;;;1.88;;
45236;SDS011;30973;51.442;3.580;2022-10-01T04:41:27;5.93;;;1.73;;
45236;SDS011;30973;51.442;3.580;2022-10-01T04:43:56;13.35;;;2.50;;
45236;SDS011;30973;51.442;3.580;2022-10-01T04:46:29;12.25;;;2.15;;
45236;SDS011;30973;51.442;3.580;2022-10-01T04:48:57;11.30;;;2.25;;
45236;SDS011;30973;51.442;3.580;2022-10-01T04:51:24;11.30;;;2.42;;
45236;SDS011;30973;51.442;3.580;2022-10-01T04:53:51;12.60;;;2.13;;
45236;SDS011;30973;51.442;3.580;2022-10-01T04:56:18;9.90;;;2.42;;
45236;SDS011;30973;51.442;3.580;2022-10-01T04:58:46;10.52;;;1.77;;
45236;SDS011;30973;51.442;3.580;2022-10-01T05:01:14;9.52;;;2.10;;
45236;SDS011;30973;51.442;3.580;2022-10-01T05:03:41;11.50;;;2.08;;
45236;SDS011;30973;51.442;3.580;2022-10-01T05:06:09;10.73;;;2.28;;
45236;SDS011;30973;51.442;3.580;2022-10-01T05:08:36;10.65;;;2.10;;
45236;SDS011;30973;51.442;3.580;2022-10-01T05:11:04;7.43;;;2.53;;
45236;SDS011;30973;51.442;3.580;2022-10-01T05:13:31;12.55;;;2.83;;
45236;SDS011;30973;51.442;3.580;2022-10-01T05:15:59;13.30;;;2.65;;
45236;SDS011;30973;51.442;3.580;2022-10-01T05:18:28;15.52;;;2.72;;
45236;SDS011;30973;51.442;3.580;2022-10-01T05:20:55;12.40;;;2.40;;
45236;SDS011;30973;51.442;3.580;2022-10-01T05:23:23;10.90;;;1.92;;
45236;SDS011;30973;51.442;3.580;2022-10-01T05:25:50;14.15;;;2.17;;
45236;SDS011;30973;51.442;3.580;2022-10-01T05:28:17;8.90;;;1.88;;
45236;SDS011;30973;51.442;3.580;2022-10-01T05:30:48;15.50;;;2.67;;
45236;SDS011;30973;51.442;3.580;2022-10-01T05:33:16;16.48;;;3.42;;
45236;SDS011;30973;51.442;3.580;2022-10-01T05:35:43;20.35;;;4.72;;
45236;SDS011;30973;51.442;3.580;2022-10-01T05:38:12;9.50;;;2.35;;
45236;SDS011;30973;51.442;3.580;2022-10-01T05:40:40;9.30;;;2.10;;
45236;SDS011;30973;51.442;3.580;2022-10-01T05:43:10;12.45;;;2.13;;
45236;SDS011;30973;51.442;3.580;2022-10-01T05:45:38;7.55;;;1.88;;
45236;SDS011;30973;51.442;3.580;2022-10-01T05:48:06;7.85;;;1.98;;
45236;SDS011;30973;51.442;3.580;2022-10-01T05:50:35;12.43;;;1.80;;
45236;SDS011;30973;51.442;3.580;2022-10-01T05:53:05;11.32;;;1.70;;
45236;SDS011;30973;51.442;3.580;2022-10-01T05:55:33;17.38;;;2.30;;
45236;SDS011;30973;51.442;3.580;2022-10-01T05:58:02;13.23;;;2.30;;
45236;SDS011;30973;51.442;3.580;2022-10-01T06:00:30;21.10;;;3.20;;
45236;SDS011;30973;51.442;3.580;2022-10-01T06:02:58;33.38;;;5.25;;
45236;SDS011;30973;51.442;3.580;2022-10-01T06:05:26;35.53;;;4.88;;
45236;SDS011;30973;51.442;3.580;2022-10-01T06:07:54;36.67;;;5.60;;
45236;SDS011;30973;51.442;3.580;2022-10-01T06:10:21;30.70;;;4.32;;
45236;SDS011;30973;51.442;3.580;2022-10-01T06:12:50;19.98;;;4.53;;
45236;SDS011;30973;51.442;3.580;2022-10-01T06:15:18;24.45;;;4.20;;
45236;SDS011;30973;51.442;3.580;2022-10-01T06:17:45;20.52;;;4.30;;
45236;SDS011;30973;51.442;3.580;2022-10-01T06:20:13;15.00;;;3.65;;
45236;SDS011;30973;51.442;3.580;2022-10-01T06:22:42;15.23;;;3.47;;
45236;SDS011;30973;51.442;3.580;2022-10-01T06:25:10;14.82;;;3.58;;
45236;SDS011;30973;51.442;3.580;2022-10-01T06:27:39;23.42;;;3.72;;
45236;SDS011;30973;51.442;3.580;2022-10-01T06:30:06;21.48;;;4.45;;
45236;SDS011;30973;51.442;3.580;2022-10-01T06:32:34;16.02;;;3.20;;
45236;SDS011;30973;51.442;3.580;2022-10-01T06:35:01;15.30;;;3.20;;
45236;SDS011;30973;51.442;3.580;2022-10-01T06:37:29;17.35;;;3.63;;
45236;SDS011;30973;51.442;3.580;2022-10-01T06:39:56;18.50;;;3.53;;
45236;SDS011;30973;51.442;3.580;2022-10-01T06:42:24;12.88;;;3.25;;
45236;SDS011;30973;51.442;3.580;2022-10-01T06:44:51;12.73;;;2.90;;
45236;SDS011;30973;51.442;3.580;2022-10-01T06:47:18;13.20;;;2.67;;
45236;SDS011;30973;51.442;3.580;2022-10-01T06:49:45;17.02;;;3.20;;
45236;SDS011;30973;51.442;3.580;2022-10-01T06:52:13;17.45;;;3.13;;
45236;SDS011;30973;51.442;3.580;2022-10-01T06:54:59;16.70;;;3.47;;
45236;SDS011;30973;51.442;3.580;2022-10-01T06:57:27;17.70;;;3.67;;
45236;SDS011;30973;51.442;3.580;2022-10-01T06:59:54;13.40;;;2.53;;
45236;SDS011;30973;51.442;3.580;2022-10-01T07:02:24;15.10;;;3.78;;
45236;SDS011;30973;51.442;3.580;2022-10-01T07:04:57;18.83;;;3.88;;
45236;SDS011;30973;51.442;3.580;2022-10-01T07:07:32;14.52;;;2.92;;
45236;SDS011;30973;51.442;3.580;2022-10-01T07:10:01;12.57;;;3.22;;
45236;SDS011;30973;51.442;3.580;2022-10-01T07:12:28;17.50;;;2.80;;
45236;SDS011;30973;51.442;3.580;2022-10-01T07:14:55;11.38;;;2.70;;
45236;SDS011;30973;51.442;3.580;2022-10-01T07:17:23;15.27;;;2.80;;
45236;SDS011;30973;51.442;3.580;2022-10-01T07:19:50;15.68;;;3.30;;
45236;SDS011;30973;51.442;3.580;2022-10-01T07:22:17;12.65;;;2.50;;
45236;SDS011;30973;51.442;3.580;2022-10-01T07:24:45;13.45;;;2.83;;
45236;SDS011;30973;51.442;3.580;2022-10-01T07:27:13;12.75;;;2.75;;
45236;SDS011;30973;51.442;3.580;2022-10-01T07:29:40;12.70;;;2.85;;
45236;SDS011;30973;51.442;3.580;2022-10-01T07:32:08;13.70;;;2.92;;
45236;SDS011;30973;51.442;3.580;2022-10-01T07:34:36;14.95;;;3.10;;
45236;SDS011;30973;51.442;3.580;2022-10-01T07:37:06;13.98;;;2.63;;
45236;SDS011;30973;51.442;3.580;2022-10-01T07:39:34;12.68;;;3.28;;
45236;SDS011;30973;51.442;3.580;2022-10-01T07:42:01;16.80;;;3.08;;
45236;SDS011;30973;51.442;3.580;2022-10-01T07:44:29;10.82;;;3.10;;
45236;SDS011;30973;51.442;3.580;2022-10-01T07:46:56;13.30;;;2.90;;
45236;SDS011;30973;51.442;3.580;2022-10-01T07:49:23;13.20;;;3.15;;
45236;SDS011;30973;51.442;3.580;2022-10-01T07:51:51;18.85;;;3.58;;
45236;SDS011;30973;51.442;3.580;2022-10-01T07:54:20;16.25;;;3.05;;
45236;SDS011;30973;51.442;3.580;2022-10-01T07:56:48;16.48;;;3.10;;
45236;SDS011;30973;51.442;3.580;2022-10-01T07:59:18;13.85;;;2.38;;
45236;SDS011;30973;51.442;3.580;2022-10-01T08:01:48;11.80;;;3.17;;
45236;SDS011;30973;51.442;3.580;2022-10-01T08:04:17;13.95;;;2.90;;
45236;SDS011;30973;51.442;3.580;2022-10-01T08:07:04;17.00;;;3.10;;
45236;SDS011;30973;51.442;3.580;2022-10-01T08:09:31;13.68;;;2.95;;
45236;SDS011;30973;51.442;3.580;2022-10-01T08:11:59;13.95;;;3.33;;
45236;SDS011;30973;51.442;3.580;2022-10-01T08:14:27;14.13;;;2.90;;
45236;SDS011;30973;51.442;3.580;2022-10-01T08:16:55;13.93;;;3.03;;
45236;SDS011;30973;51.442;3.580;2022-10-01T08:19:23;14.23;;;3.08;;
45236;SDS011;30973;51.442;3.580;2022-10-01T08:21:51;14.68;;;2.75;;
45236;SDS011;30973;51.442;3.580;2022-10-01T08:24:18;14.38;;;3.05;;
45236;SDS011;30973;51.442;3.580;2022-10-01T08:26:53;16.70;;;3.67;;
45236;SDS011;30973;51.442;3.580;2022-10-01T08:29:23;13.73;;;3.08;;
45236;SDS011;30973;51.442;3.580;2022-10-01T08:31:50;13.55;;;3.45;;
45236;SDS011;30973;51.442;3.580;2022-10-01T08:34:17;14.20;;;3.30;;
45236;SDS011;30973;51.442;3.580;2022-10-01T08:36:48;15.55;;;3.00;;
45236;SDS011;30973;51.442;3.580;2022-10-01T08:39:17;19.60;;;3.42;;
45236;SDS011;30973;51.442;3.580;2022-10-01T08:41:50;18.55;;;3.63;;
45236;SDS011;30973;51.442;3.580;2022-10-01T08:44:21;15.57;;;3.67;;
45236;SDS011;30973;51.442;3.580;2022-10-01T08:46:54;12.82;;;2.42;;
45236;SDS011;30973;51.442;3.580;2022-10-01T08:49:24;13.18;;;3.55;;
45236;SDS011;30973;51.442;3.580;2022-10-01T08:54:32;13.95;;;3.92;;
45236;SDS011;30973;51.442;3.580;2022-10-01T08:57:02;16.88;;;3.20;;
45236;SDS011;30973;51.442;3.580;2022-10-01T08:59:36;14.18;;;3.10;;
45236;SDS011;30973;51.442;3.580;2022-10-01T09:02:18;15.25;;;2.97;;
45236;SDS011;30973;51.442;3.580;2022-10-01T09:04:46;13.10;;;3.03;;
45236;SDS011;30973;51.442;3.580;2022-10-01T09:07:26;12.27;;;3.17;;
45236;SDS011;30973;51.442;3.580;2022-10-01T09:12:36;14.70;;;2.85;;
45236;SDS011;30973;51.442;3.580;2022-10-01T09:17:52;14.27;;;3.10;;
45236;SDS011;30973;51.442;3.580;2022-10-01T09:20:26;15.23;;;2.65;;
45236;SDS011;30973;51.442;3.580;2022-10-01T09:25:23;13.73;;;3.03;;
45236;SDS011;30973;51.442;3.580;2022-10-01T09:31:20;15.68;;;3.80;;
45236;SDS011;30973;51.442;3.580;2022-10-01T09:33:52;16.35;;;3.67;;
45236;SDS011;30973;51.442;3.580;2022-10-01T09:39:35;14.10;;;3.65;;
45236;SDS011;30973;51.442;3.580;2022-10-01T09:42:07;15.40;;;3.05;;
45236;SDS011;30973;51.442;3.580;2022-10-01T09:44:34;14.73;;;3.00;;
45236;SDS011;30973;51.442;3.580;2022-10-01T09:47:01;14.75;;;3.13;;
45236;SDS011;30973;51.442;3.580;2022-10-01T09:49:33;14.82;;;2.90;;
45236;SDS011;30973;51.442;3.580;2022-10-01T09:52:12;12.88;;;2.88;;
45236;SDS011;30973;51.442;3.580;2022-10-01T09:55:04;12.55;;;2.63;;
45236;SDS011;30973;51.442;3.580;2022-10-01T09:58:27;17.95;;;3.10;;
45236;SDS011;30973;51.442;3.580;2022-10-01T10:00:39;15.75;;;3.42;;
45236;SDS011;30973;51.442;3.580;2022-10-01T10:03:07;14.57;;;3.22;;
45236;SDS011;30973;51.442;3.580;2022-10-01T10:05:41;13.52;;;2.83;;
45236;SDS011;30973;51.442;3.580;2022-10-01T10:08:13;14.45;;;3.20;;
45236;SDS011;30973;51.442;3.580;2022-10-01T10:10:50;12.30;;;2.75;;
45236;SDS011;30973;51.442;3.580;2022-10-01T10:18:36;11.80;;;2.95;;
45236;SDS011;30973;51.442;3.580;2022-10-01T10:21:06;13.90;;;3.50;;
45236;SDS011;30973;51.442;3.580;2022-10-01T10:26:19;15.70;;;4.00;;
45236;SDS011;30973;51.442;3.580;2022-10-01T10:28:59;11.32;;;2.60;;
45236;SDS011;30973;51.442;3.580;2022-10-01T10:31:29;14.50;;;3.35;;
45236;SDS011;30973;51.442;3.580;2022-10-01T10:36:40;13.48;;;2.90;;
45236;SDS011;30973;51.442;3.580;2022-10-01T10:39:16;10.50;;;2.50;;
45236;SDS011;30973;51.442;3.580;2022-10-01T10:41:54;15.00;;;2.83;;
45236;SDS011;30973;51.442;3.580;2022-10-01T10:44:24;15.52;;;3.42;;
45236;SDS011;30973;51.442;3.580;2022-10-01T10:47:01;13.48;;;3.25;;
45236;SDS011;30973;51.442;3.580;2022-10-01T10:49:32;12.38;;;2.30;;
45236;SDS011;30973;51.442;3.580;2022-10-01T10:54:56;8.80;;;2.17;;
45236;SDS011;30973;51.442;3.580;2022-10-01T10:57:25;12.05;;;2.80;;
45236;SDS011;30973;51.442;3.580;2022-10-01T11:00:02;14.82;;;3.33;;
45236;SDS011;30973;51.442;3.580;2022-10-01T11:02:38;14.80;;;3.47;;
45236;SDS011;30973;51.442;3.580;2022-10-01T11:05:16;12.27;;;3.03;;
45236;SDS011;30973;51.442;3.580;2022-10-01T11:07:45;11.38;;;2.95;;
45236;SDS011;30973;51.442;3.580;2022-10-01T11:10:18;14.75;;;3.38;;
45236;SDS011;30973;51.442;3.580;2022-10-01T11:13:06;10.65;;;2.63;;
45236;SDS011;30973;51.442;3.580;2022-10-01T11:18:52;12.57;;;2.40;;
45236;SDS011;30973;51.442;3.580;2022-10-01T11:30:17;12.80;;;4.00;;
45236;SDS011;30973;51.442;3.580;2022-10-01T11:33:38;15.00;;;3.25;;
45236;SDS011;30973;51.442;3.580;2022-10-01T11:36:02;12.05;;;2.65;;
45236;SDS011;30973;51.442;3.580;2022-10-01T11:38:48;12.00;;;2.95;;
45236;SDS011;30973;51.442;3.580;2022-10-01T11:41:28;14.85;;;3.35;;
45236;SDS011;30973;51.442;3.580;2022-10-01T11:44:17;10.60;;;2.60;;
45236;SDS011;30973;51.442;3.580;2022-10-01T11:47:02;14.82;;;3.10;;
45236;SDS011;30973;51.442;3.580;2022-10-01T11:54:57;14.20;;;2.50;;
45236;SDS011;30973;51.442;3.580;2022-10-01T11:57:59;9.57;;;2.60;;
45236;SDS011;30973;51.442;3.580;2022-10-01T12:01:15;12.68;;;2.78;;
45236;SDS011;30973;51.442;3.580;2022-10-01T12:06:41;11.10;;;2.78;;
45236;SDS011;30973;51.442;3.580;2022-10-01T12:12:04;12.85;;;2.97;;
45236;SDS011;30973;51.442;3.580;2022-10-01T12:19:35;13.32;;;2.75;;
45236;SDS011;30973;51.442;3.580;2022-10-01T12:22:12;11.95;;;3.03;;
45236;SDS011;30973;51.442;3.580;2022-10-01T12:24:47;17.25;;;3.47;;
45236;SDS011;30973;51.442;3.580;2022-10-01T12:35:24;17.23;;;3.67;;
45236;SDS011;30973;51.442;3.580;2022-10-01T12:38:11;15.35;;;3.67;;
45236;SDS011;30973;51.442;3.580;2022-10-01T12:40:49;16.33;;;3.42;;
45236;SDS011;30973;51.442;3.580;2022-10-01T12:43:34;13.57;;;3.30;;
45236;SDS011;30973;51.442;3.580;2022-10-01T12:49:02;13.73;;;3.53;;
45236;SDS011;30973;51.442;3.580;2022-10-01T12:59:55;13.18;;;2.90;;
45236;SDS011;30973;51.442;3.580;2022-10-01T13:08:20;19.55;;;3.80;;
45236;SDS011;30973;51.442;3.580;2022-10-01T13:13:31;10.95;;;3.17;;
45236;SDS011;30973;51.442;3.580;2022-10-01T13:24:22;11.93;;;2.50;;
45236;SDS011;30973;51.442;3.580;2022-10-01T13:27:09;13.20;;;3.10;;
45236;SDS011;30973;51.442;3.580;2022-10-01T13:29:48;15.02;;;3.40;;
45236;SDS011;30973;51.442;3.580;2022-10-01T13:32:30;14.57;;;3.25;;
45236;SDS011;30973;51.442;3.580;2022-10-01T13:35:00;21.30;;;3.92;;
45236;SDS011;30973;51.442;3.580;2022-10-01T13:37:46;11.05;;;3.10;;
45236;SDS011;30973;51.442;3.580;2022-10-01T13:40:21;15.15;;;3.20;;
45236;SDS011;30973;51.442;3.580;2022-10-01T13:42:51;12.93;;;2.72;;
45236;SDS011;30973;51.442;3.580;2022-10-01T13:45:26;13.27;;;2.38;;
45236;SDS011;30973;51.442;3.580;2022-10-01T13:53:32;11.93;;;2.45;;
45236;SDS011;30973;51.442;3.580;2022-10-01T13:56:02;14.90;;;3.00;;
45236;SDS011;30973;51.442;3.580;2022-10-01T14:09:41;11.77;;;2.78;;
45236;SDS011;30973;51.442;3.580;2022-10-01T14:12:21;15.48;;;3.60;;
45236;SDS011;30973;51.442;3.580;2022-10-01T14:15:24;14.73;;;3.20;;
45236;SDS011;30973;51.442;3.580;2022-10-01T14:18:24;13.10;;;2.35;;
45236;SDS011;30973;51.442;3.580;2022-10-01T14:29:24;14.10;;;3.33;;
45236;SDS011;30973;51.442;3.580;2022-10-01T14:32:21;18.08;;;4.75;;
45236;SDS011;30973;51.442;3.580;2022-10-01T14:37:26;16.67;;;3.42;;
45236;SDS011;30973;51.442;3.580;2022-10-01T14:40:40;16.35;;;3.35;;
45236;SDS011;30973;51.442;3.580;2022-10-01T14:42:59;11.60;;;2.60;;
45236;SDS011;30973;51.442;3.580;2022-10-01T14:48:16;13.05;;;3.63;;
45236;SDS011;30973;51.442;3.580;2022-10-01T14:50:45;10.90;;;3.03;;
45236;SDS011;30973;51.442;3.580;2022-10-01T14:53:15;12.25;;;3.10;;
45236;SDS011;30973;51.442;3.580;2022-10-01T14:55:45;12.95;;;3.05;;
45236;SDS011;30973;51.442;3.580;2022-10-01T14:58:17;9.52;;;3.58;;
45236;SDS011;30973;51.442;3.580;2022-10-01T15:00:48;14.23;;;3.47;;
45236;SDS011;30973;51.442;3.580;2022-10-01T15:03:17;12.15;;;2.90;;
45236;SDS011;30973;51.442;3.580;2022-10-01T15:05:45;15.90;;;3.20;;
45236;SDS011;30973;51.442;3.580;2022-10-01T15:08:19;13.75;;;2.95;;
45236;SDS011;30973;51.442;3.580;2022-10-01T15:10:51;21.40;;;3.15;;
45236;SDS011;30973;51.442;3.580;2022-10-01T15:13:23;11.93;;;3.30;;
45236;SDS011;30973;51.442;3.580;2022-10-01T15:15:54;13.48;;;2.65;;
45236;SDS011;30973;51.442;3.580;2022-10-01T15:18:21;12.75;;;3.03;;
45236;SDS011;30973;51.442;3.580;2022-10-01T15:20:50;11.35;;;3.15;;
45236;SDS011;30973;51.442;3.580;2022-10-01T15:23:21;12.95;;;3.47;;
45236;SDS011;30973;51.442;3.580;2022-10-01T15:25:49;14.32;;;3.42;;
45236;SDS011;30973;51.442;3.580;2022-10-01T15:28:33;14.50;;;3.25;;
45236;SDS011;30973;51.442;3.580;2022-10-01T15:31:02;10.82;;;3.03;;
45236;SDS011;30973;51.442;3.580;2022-10-01T15:36:00;14.30;;;3.35;;
45236;SDS011;30973;51.442;3.580;2022-10-01T15:38:31;14.90;;;4.03;;
45236;SDS011;30973;51.442;3.580;2022-10-01T15:41:00;9.15;;;3.10;;
45236;SDS011;30973;51.442;3.580;2022-10-01T15:43:48;12.45;;;3.58;;
45236;SDS011;30973;51.442;3.580;2022-10-01T15:46:19;16.17;;;4.40;;
45236;SDS011;30973;51.442;3.580;2022-10-01T15:51:59;16.38;;;3.40;;
45236;SDS011;30973;51.442;3.580;2022-10-01T15:54:47;10.30;;;2.35;;
45236;SDS011;30973;51.442;3.580;2022-10-01T15:57:24;11.30;;;2.85;;
45236;SDS011;30973;51.442;3.580;2022-10-01T15:59:53;14.88;;;3.70;;
45236;SDS011;30973;51.442;3.580;2022-10-01T16:02:23;18.63;;;4.50;;
45236;SDS011;30973;51.442;3.580;2022-10-01T16:04:52;15.32;;;4.88;;
45236;SDS011;30973;51.442;3.580;2022-10-01T16:07:26;14.93;;;5.40;;
45236;SDS011;30973;51.442;3.580;2022-10-01T16:09:59;17.13;;;6.30;;
45236;SDS011;30973;51.442;3.580;2022-10-01T16:12:48;14.13;;;5.18;;
45236;SDS011;30973;51.442;3.580;2022-10-01T16:15:22;11.70;;;4.60;;
45236;SDS011;30973;51.442;3.580;2022-10-01T16:17:56;18.40;;;4.00;;
45236;SDS011;30973;51.442;3.580;2022-10-01T16:20:34;12.95;;;3.17;;
45236;SDS011;30973;51.442;3.580;2022-10-01T16:26:16;13.15;;;3.80;;
45236;SDS011;30973;51.442;3.580;2022-10-01T16:28:53;12.85;;;3.75;;
45236;SDS011;30973;51.442;3.580;2022-10-01T16:31:21;13.40;;;3.70;;
45236;SDS011;30973;51.442;3.580;2022-10-01T16:33:50;13.65;;;2.97;;
45236;SDS011;30973;51.442;3.580;2022-10-01T16:36:17;11.85;;;3.95;;
45236;SDS011;30973;51.442;3.580;2022-10-01T16:38:46;10.68;;;3.35;;
45236;SDS011;30973;51.442;3.580;2022-10-01T16:41:15;13.25;;;3.28;;
45236;SDS011;30973;51.442;3.580;2022-10-01T16:43:52;14.48;;;3.20;;
45236;SDS011;30973;51.442;3.580;2022-10-01T16:46:21;12.98;;;3.15;;
45236;SDS011;30973;51.442;3.580;2022-10-01T16:48:48;14.90;;;2.90;;
45236;SDS011;30973;51.442;3.580;2022-10-01T16:51:17;13.45;;;3.35;;
45236;SDS011;30973;51.442;3.580;2022-10-01T16:53:45;21.55;;;4.60;;
45236;SDS011;30973;51.442;3.580;2022-10-01T16:56:12;21.85;;;4.40;;
45236;SDS011;30973;51.442;3.580;2022-10-01T16:58:40;16.55;;;4.10;;
45236;SDS011;30973;51.442;3.580;2022-10-01T17:01:10;22.98;;;4.55;;
45236;SDS011;30973;51.442;3.580;2022-10-01T17:03:39;21.55;;;4.07;;
45236;SDS011;30973;51.442;3.580;2022-10-01T17:06:05;20.48;;;4.03;;
45236;SDS011;30973;51.442;3.580;2022-10-01T17:08:33;21.02;;;4.40;;
45236;SDS011;30973;51.442;3.580;2022-10-01T17:11:00;19.00;;;4.55;;
45236;SDS011;30973;51.442;3.580;2022-10-01T17:13:30;23.27;;;4.55;;
45236;SDS011;30973;51.442;3.580;2022-10-01T17:16:01;21.73;;;4.78;;
45236;SDS011;30973;51.442;3.580;2022-10-01T17:18:30;19.58;;;4.53;;
45236;SDS011;30973;51.442;3.580;2022-10-01T17:20:57;25.58;;;4.97;;
45236;SDS011;30973;51.442;3.580;2022-10-01T17:23:24;21.13;;;5.43;;
45236;SDS011;30973;51.442;3.580;2022-10-01T17:25:51;25.38;;;5.50;;
45236;SDS011;30973;51.442;3.580;2022-10-01T17:28:19;26.65;;;5.60;;
45236;SDS011;30973;51.442;3.580;2022-10-01T17:30:47;24.30;;;5.82;;
45236;SDS011;30973;51.442;3.580;2022-10-01T17:33:15;23.60;;;5.28;;